CheckWX is a tool to help pilots better visualize weather data.  It is not intended as a substitute for an official pre-flight weather briefing.

05:15:21 UTC

KGUP TAF
Gallup Municipal Airport
Gallup, New Mexico, USA
KGUP 232326Z 2400/2424 23009KT P6SM SKC FM240200 00000KT P6SM SKC FM241900 28006KT P6SM FEW150

Feb-24@
00:00 UTC

Feb-24 @ 00:00 UTC

Feb-24@
02:00 UTC

Feb-24 @ 02:00 UTC

KGUP 232326Z 2400/2424 23009KT P6SM SKC

Expired

Wind
  • 230° at 9 KTS
Cloud Levels
  • Clear skies

Feb-24@
02:00 UTC

Feb-24 @ 02:00 UTC

Feb-24@
19:00 UTC

Feb-24 @ 19:00 UTC

FM240200 00000KT P6SM SKC

From

From Standard forecast or significant change

Cloud Levels
  • Clear skies

Feb-24@
19:00 UTC

Feb-24 @ 19:00 UTC

Feb-25@
00:00 UTC

Feb-25 @ 00:00 UTC

FM241900 28006KT P6SM FEW150

From

From Standard forecast or significant change

Wind
  • 280° at 6 KTS
Cloud Levels
  • Few at 15,000' AGL